Aviation Digital Data Service (ADDS)

Output produced by METARs form (0447 UTC 24 August 2016)
found at http://aviationweather.gov/adds/metars/
 
KMSS 232332Z 2400/2424 22010KT P6SM FEW140 
     FM240500 23006KT P6SM SKC 
     FM241600 23011G17KT P6SM FEW200